sensor_id;sensor_type;location;lat;lon;timestamp;pressure;altitude;pressure_sealevel;temperature;humidity
69624;BME280;56843;52.020;5.670;2023-03-15T00:00:43;100957.41;;;10.28;49.34
69624;BME280;56843;52.020;5.670;2023-03-15T00:02:13;100961.94;;;10.27;49.11
69624;BME280;56843;52.020;5.670;2023-03-15T00:03:44;100959.94;;;10.24;49.30
69624;BME280;56843;52.020;5.670;2023-03-15T00:05:15;100957.88;;;10.21;49.31
69624;BME280;56843;52.020;5.670;2023-03-15T00:06:46;100955.53;;;10.20;49.33
69624;BME280;56843;52.020;5.670;2023-03-15T00:08:17;100948.94;;;10.17;49.36
69624;BME280;56843;52.020;5.670;2023-03-15T00:09:47;100955.34;;;10.16;49.30
69624;BME280;56843;52.020;5.670;2023-03-15T00:11:18;100950.66;;;10.13;49.30
69624;BME280;56843;52.020;5.670;2023-03-15T00:12:48;100947.97;;;10.13;49.43
69624;BME280;56843;52.020;5.670;2023-03-15T00:14:20;100948.28;;;10.12;49.35
69624;BME280;56843;52.020;5.670;2023-03-15T00:15:52;100949.69;;;10.09;49.49
69624;BME280;56843;52.020;5.670;2023-03-15T00:17:25;100953.78;;;10.07;49.31
69624;BME280;56843;52.020;5.670;2023-03-15T00:18:55;100960.22;;;10.06;49.48
69624;BME280;56843;52.020;5.670;2023-03-15T00:20:26;100958.66;;;10.05;49.40
69624;BME280;56843;52.020;5.670;2023-03-15T00:21:56;100949.41;;;10.02;49.46
69624;BME280;56843;52.020;5.670;2023-03-15T00:23:27;100951.28;;;10.02;49.49
69624;BME280;56843;52.020;5.670;2023-03-15T00:24:57;100953.47;;;10.00;49.70
69624;BME280;56843;52.020;5.670;2023-03-15T00:26:28;100963.69;;;9.98;49.68
69624;BME280;56843;52.020;5.670;2023-03-15T00:27:58;100962.41;;;9.95;49.54
69624;BME280;56843;52.020;5.670;2023-03-15T00:29:29;100958.16;;;9.94;49.48
69624;BME280;56843;52.020;5.670;2023-03-15T00:31:24;100956.59;;;9.93;49.57
69624;BME280;56843;52.020;5.670;2023-03-15T00:32:54;100950.34;;;9.89;49.74
69624;BME280;56843;52.020;5.670;2023-03-15T00:34:25;100947.66;;;9.89;49.71
69624;BME280;56843;52.020;5.670;2023-03-15T00:35:56;100947.66;;;9.89;49.99
69624;BME280;56843;52.020;5.670;2023-03-15T00:37:26;100946.09;;;9.88;49.91
69624;BME280;56843;52.020;5.670;2023-03-15T00:38:56;100960.22;;;9.89;49.76
69624;BME280;56843;52.020;5.670;2023-03-15T00:40:27;100960.22;;;9.89;49.85
69624;BME280;56843;52.020;5.670;2023-03-15T00:41:57;100955.19;;;9.87;50.07
69624;BME280;56843;52.020;5.670;2023-03-15T00:43:28;100960.22;;;9.89;50.14
69624;BME280;56843;52.020;5.670;2023-03-15T00:44:58;100959.44;;;9.88;50.08
69624;BME280;56843;52.020;5.670;2023-03-15T00:46:29;100959.44;;;9.88;50.12
69624;BME280;56843;52.020;5.670;2023-03-15T00:48:01;100958.34;;;9.89;50.21
69624;BME280;56843;52.020;5.670;2023-03-15T00:49:31;100961.00;;;9.89;50.14
69624;BME280;56843;52.020;5.670;2023-03-15T00:51:13;100962.09;;;9.88;49.95
69624;BME280;56843;52.020;5.670;2023-03-15T00:52:44;100952.84;;;9.86;50.19
69624;BME280;56843;52.020;5.670;2023-03-15T00:54:16;100958.63;;;9.88;50.11
69624;BME280;56843;52.020;5.670;2023-03-15T00:55:46;100958.63;;;9.88;50.05
69624;BME280;56843;52.020;5.670;2023-03-15T00:57:18;100958.63;;;9.88;50.14
69624;BME280;56843;52.020;5.670;2023-03-15T00:58:49;100968.84;;;9.86;50.11
69624;BME280;56843;52.020;5.670;2023-03-15T01:00:22;100955.81;;;9.84;50.04
69624;BME280;56843;52.020;5.670;2023-03-15T01:01:54;100956.16;;;9.83;50.33
69624;BME280;56843;52.020;5.670;2023-03-15T01:03:27;100963.66;;;9.81;50.32
69624;BME280;56843;52.020;5.670;2023-03-15T01:04:58;100963.19;;;9.79;50.10
69624;BME280;56843;52.020;5.670;2023-03-15T01:06:28;100970.41;;;9.78;50.43
69624;BME280;56843;52.020;5.670;2023-03-15T01:07:59;100972.28;;;9.78;50.21
69624;BME280;56843;52.020;5.670;2023-03-15T01:09:32;100971.66;;;9.72;50.41
69624;BME280;56843;52.020;5.670;2023-03-15T01:11:04;100986.56;;;9.73;50.45
69624;BME280;56843;52.020;5.670;2023-03-15T01:12:36;100981.56;;;9.72;50.48
69624;BME280;56843;52.020;5.670;2023-03-15T01:14:08;100983.72;;;9.70;50.64
69624;BME280;56843;52.020;5.670;2023-03-15T01:15:44;100987.97;;;9.71;50.72
69624;BME280;56843;52.020;5.670;2023-03-15T01:17:15;100992.03;;;9.68;50.54
69624;BME280;56843;52.020;5.670;2023-03-15T01:18:46;100984.03;;;9.68;50.71
69624;BME280;56843;52.020;5.670;2023-03-15T01:20:17;100993.16;;;9.67;50.73
69624;BME280;56843;52.020;5.670;2023-03-15T01:21:47;100993.44;;;9.66;50.78
69624;BME280;56843;52.020;5.670;2023-03-15T01:23:20;100992.34;;;9.67;50.85
69624;BME280;56843;52.020;5.670;2023-03-15T01:24:51;100995.34;;;9.65;50.60
69624;BME280;56843;52.020;5.670;2023-03-15T01:26:22;100991.88;;;9.65;50.59
69624;BME280;56843;52.020;5.670;2023-03-15T01:27:53;100989.50;;;9.63;50.86
69624;BME280;56843;52.020;5.670;2023-03-15T01:29:24;100999.09;;;9.64;50.92
69624;BME280;56843;52.020;5.670;2023-03-15T01:30:54;101002.84;;;9.63;50.79
69624;BME280;56843;52.020;5.670;2023-03-15T01:32:26;101003.94;;;9.62;50.98
69624;BME280;56843;52.020;5.670;2023-03-15T01:33:57;101006.94;;;9.60;51.00
69624;BME280;56843;52.020;5.670;2023-03-15T01:35:30;101008.81;;;9.60;50.99
69624;BME280;56843;52.020;5.670;2023-03-15T01:37:01;101010.69;;;9.59;51.00
69624;BME280;56843;52.020;5.670;2023-03-15T01:38:37;101003.00;;;9.58;50.99
69624;BME280;56843;52.020;5.670;2023-03-15T01:40:11;101009.91;;;9.59;50.93
69624;BME280;56843;52.020;5.670;2023-03-15T01:41:42;101009.09;;;9.58;50.84
69624;BME280;56843;52.020;5.670;2023-03-15T01:43:17;101018.22;;;9.57;51.02
69624;BME280;56843;52.020;5.670;2023-03-15T01:48:03;101015.69;;;9.52;51.04
69624;BME280;56843;52.020;5.670;2023-03-15T01:49:33;101025.28;;;9.53;51.03
69624;BME280;56843;52.020;5.670;2023-03-15T01:52:56;101023.22;;;9.50;50.87
69624;BME280;56843;52.020;5.670;2023-03-15T01:56:06;101027.75;;;9.50;51.26
69624;BME280;56843;52.020;5.670;2023-03-15T01:57:40;101030.72;;;9.48;51.10
69624;BME280;56843;52.020;5.670;2023-03-15T01:59:20;101039.03;;;9.47;51.09
69624;BME280;56843;52.020;5.670;2023-03-15T02:03:27;101033.06;;;9.41;51.20
69624;BME280;56843;52.020;5.670;2023-03-15T02:05:06;101033.84;;;9.42;51.23
69624;BME280;56843;52.020;5.670;2023-03-15T02:06:41;101035.72;;;9.41;51.19
69624;BME280;56843;52.020;5.670;2023-03-15T02:08:17;101036.03;;;9.40;51.22
69624;BME280;56843;52.020;5.670;2023-03-15T02:10:07;101036.50;;;9.42;51.20
69624;BME280;56843;52.020;5.670;2023-03-15T02:11:40;101032.91;;;9.38;51.11
69624;BME280;56843;52.020;5.670;2023-03-15T02:13:16;101043.56;;;9.38;51.28
69624;BME280;56843;52.020;5.670;2023-03-15T02:14:48;101034.78;;;9.37;51.22
69624;BME280;56843;52.020;5.670;2023-03-15T02:16:21;101033.97;;;9.37;51.00
69624;BME280;56843;52.020;5.670;2023-03-15T02:17:58;101039.63;;;9.35;51.15
69624;BME280;56843;52.020;5.670;2023-03-15T02:19:45;101037.75;;;9.36;51.29
69624;BME280;56843;52.020;5.670;2023-03-15T02:21:37;101039.16;;;9.33;51.25
69624;BME280;56843;52.020;5.670;2023-03-15T02:23:14;101040.53;;;9.31;51.38
69624;BME280;56843;52.020;5.670;2023-03-15T02:25:08;101037.56;;;9.32;51.37
69624;BME280;56843;52.020;5.670;2023-03-15T02:26:49;101038.97;;;9.30;51.36
69624;BME280;56843;52.020;5.670;2023-03-15T02:28:22;101048.84;;;9.29;51.26
69624;BME280;56843;52.020;5.670;2023-03-15T02:29:53;101044.59;;;9.28;51.46
69624;BME280;56843;52.020;5.670;2023-03-15T02:31:24;101048.38;;;9.27;51.41
69624;BME280;56843;52.020;5.670;2023-03-15T02:32:56;101049.94;;;9.28;51.35
69624;BME280;56843;52.020;5.670;2023-03-15T02:34:29;101040.38;;;9.27;51.32
69624;BME280;56843;52.020;5.670;2023-03-15T02:37:54;101060.44;;;9.25;51.66
69624;BME280;56843;52.020;5.670;2023-03-15T02:39:25;101064.19;;;9.24;51.50
69624;BME280;56843;52.020;5.670;2023-03-15T02:40:56;101054.31;;;9.24;51.49
69624;BME280;56843;52.020;5.670;2023-03-15T02:42:28;101059.97;;;9.23;51.55
69624;BME280;56843;52.020;5.670;2023-03-15T02:44:27;101056.97;;;9.24;51.44
69624;BME280;56843;52.020;5.670;2023-03-15T02:46:01;101066.69;;;9.20;51.70
69624;BME280;56843;52.020;5.670;2023-03-15T02:47:33;101057.91;;;9.20;51.45
69624;BME280;56843;52.020;5.670;2023-03-15T02:49:04;101075.75;;;9.19;51.53
69624;BME280;56843;52.020;5.670;2023-03-15T02:50:37;101071.53;;;9.18;51.68
69624;BME280;56843;52.020;5.670;2023-03-15T02:52:08;101074.19;;;9.18;51.64
69624;BME280;56843;52.020;5.670;2023-03-15T02:53:39;101082.19;;;9.18;51.59
69624;BME280;56843;52.020;5.670;2023-03-15T02:55:09;101073.41;;;9.18;51.63
69624;BME280;56843;52.020;5.670;2023-03-15T02:56:40;101074.00;;;9.15;51.58
69624;BME280;56843;52.020;5.670;2023-03-15T02:58:10;101087.81;;;9.17;51.58
69624;BME280;56843;52.020;5.670;2023-03-15T02:59:41;101084.38;;;9.16;51.95
69624;BME280;56843;52.020;5.670;2023-03-15T03:01:13;101083.88;;;9.14;51.62
69624;BME280;56843;52.020;5.670;2023-03-15T03:02:45;101093.75;;;9.14;51.59
69624;BME280;56843;52.020;5.670;2023-03-15T03:04:16;101098.31;;;9.13;51.72
69624;BME280;56843;52.020;5.670;2023-03-15T03:05:46;101100.97;;;9.13;51.62
69624;BME280;56843;52.020;5.670;2023-03-15T03:07:17;101104.72;;;9.12;51.73
69624;BME280;56843;52.020;5.670;2023-03-15T03:08:55;101106.91;;;9.10;51.82
69624;BME280;56843;52.020;5.670;2023-03-15T03:10:27;101105.03;;;9.11;51.68
69624;BME280;56843;52.020;5.670;2023-03-15T03:12:01;101113.34;;;9.09;51.71
69624;BME280;56843;52.020;5.670;2023-03-15T03:13:31;101109.56;;;9.10;51.84
69624;BME280;56843;52.020;5.670;2023-03-15T03:15:03;101109.56;;;9.10;51.75
69624;BME280;56843;52.020;5.670;2023-03-15T03:16:34;101119.44;;;9.10;51.95
69624;BME280;56843;52.020;5.670;2023-03-15T03:18:05;101123.19;;;9.09;51.77
69624;BME280;56843;52.020;5.670;2023-03-15T03:19:35;101125.38;;;9.07;51.84
69624;BME280;56843;52.020;5.670;2023-03-15T03:21:06;101120.38;;;9.05;51.81
69624;BME280;56843;52.020;5.670;2023-03-15T03:22:37;101125.38;;;9.07;51.84
69624;BME280;56843;52.020;5.670;2023-03-15T03:24:10;101135.56;;;9.05;51.93
69624;BME280;56843;52.020;5.670;2023-03-15T03:25:40;101130.22;;;9.05;51.56
69624;BME280;56843;52.020;5.670;2023-03-15T03:27:12;101133.97;;;9.04;51.89
69624;BME280;56843;52.020;5.670;2023-03-15T03:28:46;101137.75;;;9.03;51.88
69624;BME280;56843;52.020;5.670;2023-03-15T03:30:17;101140.69;;;9.01;51.85
69624;BME280;56843;52.020;5.670;2023-03-15T03:31:52;101136.47;;;9.00;51.96
69624;BME280;56843;52.020;5.670;2023-03-15T03:33:25;101141.00;;;9.00;51.80
69624;BME280;56843;52.020;5.670;2023-03-15T03:34:55;101135.97;;;8.98;52.02
69624;BME280;56843;52.020;5.670;2023-03-15T03:36:27;101138.66;;;8.98;51.82
69624;BME280;56843;52.020;5.670;2023-03-15T03:37:57;101139.72;;;8.97;51.94
69624;BME280;56843;52.020;5.670;2023-03-15T03:39:35;101152.25;;;8.97;51.98
69624;BME280;56843;52.020;5.670;2023-03-15T03:41:07;101156.00;;;8.96;52.05
69624;BME280;56843;52.020;5.670;2023-03-15T03:42:37;101161.66;;;8.94;51.90
69624;BME280;56843;52.020;5.670;2023-03-15T03:44:08;101168.06;;;8.93;51.82
69624;BME280;56843;52.020;5.670;2023-03-15T03:45:39;101163.31;;;8.90;51.71
69624;BME280;56843;52.020;5.670;2023-03-15T03:47:11;101163.03;;;8.92;51.72
69624;BME280;56843;52.020;5.670;2023-03-15T03:48:42;101165.22;;;8.90;51.96
69624;BME280;56843;52.020;5.670;2023-03-15T03:50:12;101168.16;;;8.88;51.74
69624;BME280;56843;52.020;5.670;2023-03-15T03:51:43;101173.81;;;8.86;51.99
69624;BME280;56843;52.020;5.670;2023-03-15T03:53:14;101178.66;;;8.84;51.83
69624;BME280;56843;52.020;5.670;2023-03-15T03:54:44;101180.50;;;8.84;51.81
69624;BME280;56843;52.020;5.670;2023-03-15T03:56:15;101176.28;;;8.83;51.75
69624;BME280;56843;52.020;5.670;2023-03-15T03:57:45;101181.13;;;8.81;51.66
69624;BME280;56843;52.020;5.670;2023-03-15T03:59:24;101186.75;;;8.79;51.78
69624;BME280;56843;52.020;5.670;2023-03-15T04:01:02;101193.44;;;8.77;51.64
69624;BME280;56843;52.020;5.670;2023-03-15T04:02:35;101192.19;;;8.74;51.24
69624;BME280;56843;52.020;5.670;2023-03-15T04:04:09;101196.72;;;8.74;51.65
69624;BME280;56843;52.020;5.670;2023-03-15T04:05:43;101195.94;;;8.73;51.64
69624;BME280;56843;52.020;5.670;2023-03-15T04:07:19;101199.19;;;8.70;51.58
69624;BME280;56843;52.020;5.670;2023-03-15T04:08:49;101204.03;;;8.68;51.68
69624;BME280;56843;52.020;5.670;2023-03-15T04:10:26;101214.19;;;8.66;51.60
69624;BME280;56843;52.020;5.670;2023-03-15T04:11:57;101204.66;;;8.65;51.68
69624;BME280;56843;52.020;5.670;2023-03-15T04:13:28;101205.72;;;8.64;51.62
69624;BME280;56843;52.020;5.670;2023-03-15T04:15:01;101205.72;;;8.64;51.63
69624;BME280;56843;52.020;5.670;2023-03-15T04:16:36;101200.97;;;8.61;51.79
69624;BME280;56843;52.020;5.670;2023-03-15T04:18:09;101201.25;;;8.60;51.71
69624;BME280;56843;52.020;5.670;2023-03-15T04:19:44;101203.94;;;8.60;51.74
69624;BME280;56843;52.020;5.670;2023-03-15T04:21:18;101208.75;;;8.58;51.65
69624;BME280;56843;52.020;5.670;2023-03-15T04:22:52;101218.94;;;8.56;51.61
69624;BME280;56843;52.020;5.670;2023-03-15T04:25:00;101208.88;;;8.53;51.73
69624;BME280;56843;52.020;5.670;2023-03-15T04:26:49;101223.28;;;8.52;51.67
69624;BME280;56843;52.020;5.670;2023-03-15T04:28:29;101220.59;;;8.52;51.66
69624;BME280;56843;52.020;5.670;2023-03-15T04:30:19;101218.22;;;8.50;51.62
69624;BME280;56843;52.020;5.670;2023-03-15T04:32:24;101221.00;;;8.45;51.83
69624;BME280;56843;52.020;5.670;2023-03-15T04:34:10;101221.78;;;8.46;51.64
69624;BME280;56843;52.020;5.670;2023-03-15T04:35:59;101231.66;;;8.45;51.67
69624;BME280;56843;52.020;5.670;2023-03-15T04:37:41;101232.72;;;8.44;51.63
69624;BME280;56843;52.020;5.670;2023-03-15T04:39:38;101241.03;;;8.43;51.69
69624;BME280;56843;52.020;5.670;2023-03-15T04:41:27;101241.13;;;8.38;51.62
69624;BME280;56843;52.020;5.670;2023-03-15T04:43:08;101239.84;;;8.35;51.71
69624;BME280;56843;52.020;5.670;2023-03-15T04:45:10;101249.00;;;8.29;51.73
69624;BME280;56843;52.020;5.670;2023-03-15T04:46:59;101247.72;;;8.27;51.81
69624;BME280;56843;52.020;5.670;2023-03-15T04:48:40;101240.31;;;8.24;51.77
69624;BME280;56843;52.020;5.670;2023-03-15T04:50:31;101244.66;;;8.20;52.00
69624;BME280;56843;52.020;5.670;2023-03-15T04:52:19;101242.13;;;8.14;51.79
69624;BME280;56843;52.020;5.670;2023-03-15T04:54:08;101248.00;;;8.11;51.97
69624;BME280;56843;52.020;5.670;2023-03-15T04:55:59;101255.28;;;8.06;51.84
69624;BME280;56843;52.020;5.670;2023-03-15T04:57:48;101259.63;;;8.02;51.96
69624;BME280;56843;52.020;5.670;2023-03-15T04:59:47;101259.44;;;7.98;51.83
69624;BME280;56843;52.020;5.670;2023-03-15T05:01:36;101263.78;;;7.94;51.93
69624;BME280;56843;52.020;5.670;2023-03-15T05:03:21;101267.00;;;7.91;51.99
69624;BME280;56843;52.020;5.670;2023-03-15T05:05:12;101266.00;;;7.87;51.87
69624;BME280;56843;52.020;5.670;2023-03-15T05:06:51;101263.94;;;7.84;51.94
69624;BME280;56843;52.020;5.670;2023-03-15T05:08:40;101265.03;;;7.83;52.34
69624;BME280;56843;52.020;5.670;2023-03-15T05:10:41;101271.97;;;7.79;52.32
69624;BME280;56843;52.020;5.670;2023-03-15T05:12:41;101276.31;;;7.75;51.74
69624;BME280;56843;52.020;5.670;2023-03-15T05:14:40;101273.47;;;7.72;52.21
69624;BME280;56843;52.020;5.670;2023-03-15T05:16:30;101280.16;;;7.69;52.06
69624;BME280;56843;52.020;5.670;2023-03-15T05:18:19;101286.03;;;7.66;52.17
69624;BME280;56843;52.020;5.670;2023-03-15T05:20:10;101290.84;;;7.64;52.16
69624;BME280;56843;52.020;5.670;2023-03-15T05:22:04;101296.75;;;7.61;52.12
69624;BME280;56843;52.020;5.670;2023-03-15T05:23:58;101300.00;;;7.58;52.16
69624;BME280;56843;52.020;5.670;2023-03-15T05:25:36;101299.78;;;7.55;52.20
69624;BME280;56843;52.020;5.670;2023-03-15T05:27:22;101310.69;;;7.53;52.20
69624;BME280;56843;52.020;5.670;2023-03-15T05:29:11;101312.34;;;7.49;52.36
69624;BME280;56843;52.020;5.670;2023-03-15T05:31:05;101310.25;;;7.46;52.28
69624;BME280;56843;52.020;5.670;2023-03-15T05:33:06;101306.03;;;7.45;52.33
69624;BME280;56843;52.020;5.670;2023-03-15T05:35:04;101314.88;;;7.40;52.26
69624;BME280;56843;52.020;5.670;2023-03-15T05:36:44;101314.38;;;7.38;52.44
69624;BME280;56843;52.020;5.670;2023-03-15T05:38:34;101309.63;;;7.35;52.83
69624;BME280;56843;52.020;5.670;2023-03-15T05:40:32;101316.75;;;7.40;53.26
69624;BME280;56843;52.020;5.670;2023-03-15T05:42:21;101320.13;;;7.46;53.34
69624;BME280;56843;52.020;5.670;2023-03-15T05:44:01;101318.59;;;7.58;53.53
69624;BME280;56843;52.020;5.670;2023-03-15T05:45:44;101318.16;;;7.70;53.76
69624;BME280;56843;52.020;5.670;2023-03-15T05:47:36;101327.56;;;7.81;54.06
69624;BME280;56843;52.020;5.670;2023-03-15T05:49:29;101322.28;;;7.94;54.02
69624;BME280;56843;52.020;5.670;2023-03-15T05:51:35;101323.69;;;8.05;54.21
69624;BME280;56843;52.020;5.670;2023-03-15T05:53:19;101335.41;;;8.18;54.24
69624;BME280;56843;52.020;5.670;2023-03-15T05:55:08;101334.16;;;8.29;54.31
69624;BME280;56843;52.020;5.670;2023-03-15T05:56:59;101337.91;;;8.42;54.41
69624;BME280;56843;52.020;5.670;2023-03-15T05:58:35;101341.47;;;8.51;54.65
69624;BME280;56843;52.020;5.670;2023-03-15T06:00:06;101350.34;;;8.60;54.59
69624;BME280;56843;52.020;5.670;2023-03-15T06:01:44;101352.88;;;8.70;54.68
69624;BME280;56843;52.020;5.670;2023-03-15T06:03:22;101355.31;;;8.80;54.63
69624;BME280;56843;52.020;5.670;2023-03-15T06:05:02;101355.72;;;8.87;54.70
69624;BME280;56843;52.020;5.670;2023-03-15T06:06:32;101356.88;;;8.95;54.61
69624;BME280;56843;52.020;5.670;2023-03-15T06:08:03;101356.78;;;9.00;54.67
69624;BME280;56843;52.020;5.670;2023-03-15T06:09:34;101363.56;;;9.06;54.73
69624;BME280;56843;52.020;5.670;2023-03-15T06:11:05;101362.88;;;9.14;54.63
69624;BME280;56843;52.020;5.670;2023-03-15T06:12:36;101372.66;;;9.18;54.74
69624;BME280;56843;52.020;5.670;2023-03-15T06:14:07;101379.75;;;9.23;54.58
69624;BME280;56843;52.020;5.670;2023-03-15T06:15:48;101376.19;;;9.27;54.57
69624;BME280;56843;52.020;5.670;2023-03-15T06:17:20;101382.97;;;9.33;54.89
69624;BME280;56843;52.020;5.670;2023-03-15T06:18:51;101387.41;;;9.38;54.75
69624;BME280;56843;52.020;5.670;2023-03-15T06:20:21;101394.03;;;9.40;54.85
69624;BME280;56843;52.020;5.670;2023-03-15T06:21:52;101391.94;;;9.37;55.10
69624;BME280;56843;52.020;5.670;2023-03-15T06:23:34;101392.84;;;9.33;55.49
69624;BME280;56843;52.020;5.670;2023-03-15T06:25:05;101398.19;;;9.33;55.56
69624;BME280;56843;52.020;5.670;2023-03-15T06:26:36;101392.06;;;9.32;55.77
69624;BME280;56843;52.020;5.670;2023-03-15T06:28:08;101390.75;;;9.30;55.87
69624;BME280;56843;52.020;5.670;2023-03-15T06:29:39;101389.69;;;9.31;56.03
69624;BME280;56843;52.020;5.670;2023-03-15T06:31:12;101393.16;;;9.31;56.25
69624;BME280;56843;52.020;5.670;2023-03-15T06:32:52;101393.94;;;9.32;56.29
69624;BME280;56843;52.020;5.670;2023-03-15T06:34:23;101403.19;;;9.34;56.36
69624;BME280;56843;52.020;5.670;2023-03-15T06:35:54;101402.13;;;9.35;56.37
69624;BME280;56843;52.020;5.670;2023-03-15T06:37:24;101399.94;;;9.37;56.56
69624;BME280;56843;52.020;5.670;2023-03-15T06:38:55;101404.69;;;9.40;56.54
69624;BME280;56843;52.020;5.670;2023-03-15T06:40:25;101403.59;;;9.41;56.47
69624;BME280;56843;52.020;5.670;2023-03-15T06:41:56;101415.03;;;9.42;56.42
69624;BME280;56843;52.020;5.670;2023-03-15T06:43:29;101419.00;;;9.44;56.49
69624;BME280;56843;52.020;5.670;2023-03-15T06:44:59;101418.50;;;9.42;56.56
69624;BME280;56843;52.020;5.670;2023-03-15T06:46:30;101435.97;;;9.48;56.67
69624;BME280;56843;52.020;5.670;2023-03-15T06:48:02;101427.16;;;9.48;56.52
69624;BME280;56843;52.020;5.670;2023-03-15T06:49:33;101433.78;;;9.50;56.74
69624;BME280;56843;52.020;5.670;2023-03-15T06:51:05;101434.88;;;9.49;56.72
69624;BME280;56843;52.020;5.670;2023-03-15T06:52:36;101435.38;;;9.51;56.59
69624;BME280;56843;52.020;5.670;2023-03-15T06:54:07;101439.59;;;9.52;56.92
69624;BME280;56843;52.020;5.670;2023-03-15T06:55:39;101445.44;;;9.54;56.82
69624;BME280;56843;52.020;5.670;2023-03-15T06:57:09;101444.34;;;9.55;56.70
69624;BME280;56843;52.020;5.670;2023-03-15T06:58:40;101452.84;;;9.57;56.76
69624;BME280;56843;52.020;5.670;2023-03-15T07:00:11;101461.31;;;9.59;56.69
69624;BME280;56843;52.020;5.670;2023-03-15T07:01:41;101454.13;;;9.60;56.71
69624;BME280;56843;52.020;5.670;2023-03-15T07:03:12;101458.06;;;9.63;56.78
69624;BME280;56843;52.020;5.670;2023-03-15T07:04:43;101459.63;;;9.63;56.62
69624;BME280;56843;52.020;5.670;2023-03-15T07:06:14;101465.44;;;9.66;56.77
69624;BME280;56843;52.020;5.670;2023-03-15T07:07:44;101467.03;;;9.67;56.79
69624;BME280;56843;52.020;5.670;2023-03-15T07:09:14;101464.88;;;9.69;56.77
69624;BME280;56843;52.020;5.670;2023-03-15T07:10:45;101466.44;;;9.70;56.68
69624;BME280;56843;52.020;5.670;2023-03-15T07:12:16;101466.94;;;9.72;56.90
69624;BME280;56843;52.020;5.670;2023-03-15T07:13:46;101474.94;;;9.72;56.71
69624;BME280;56843;52.020;5.670;2023-03-15T07:15:17;101466.94;;;9.72;56.74
69624;BME280;56843;52.020;5.670;2023-03-15T07:16:47;101471.97;;;9.73;56.85
69624;BME280;56843;52.020;5.670;2023-03-15T07:18:18;101474.31;;;9.75;56.90
69624;BME280;56843;52.020;5.670;2023-03-15T07:19:49;101481.25;;;9.76;56.84
69624;BME280;56843;52.020;5.670;2023-03-15T07:21:21;101467.44;;;9.74;56.83
69624;BME280;56843;52.020;5.670;2023-03-15T07:22:51;101484.09;;;9.79;56.73
69624;BME280;56843;52.020;5.670;2023-03-15T07:24:22;101492.00;;;9.84;56.99
69624;BME280;56843;52.020;5.670;2023-03-15T07:25:53;101492.16;;;9.88;56.77
69624;BME280;56843;52.020;5.670;2023-03-15T07:27:24;101495.31;;;9.90;56.80
69624;BME280;56843;52.020;5.670;2023-03-15T07:28:55;101500.56;;;9.95;56.73
69624;BME280;56843;52.020;5.670;2023-03-15T07:30:25;101499.97;;;9.98;56.68
69624;BME280;56843;52.020;5.670;2023-03-15T07:31:57;101502.22;;;10.04;56.73
69624;BME280;56843;52.020;5.670;2023-03-15T07:33:29;101504.47;;;10.11;56.75
69624;BME280;56843;52.020;5.670;2023-03-15T07:34:59;101505.94;;;10.17;56.71
69624;BME280;56843;52.020;5.670;2023-03-15T07:36:30;101503.19;;;10.22;56.50
69624;BME280;56843;52.020;5.670;2023-03-15T07:38:01;101498.22;;;10.29;56.47
69624;BME280;56843;52.020;5.670;2023-03-15T07:39:31;101503.13;;;10.36;56.50
69624;BME280;56843;52.020;5.670;2023-03-15T07:41:06;101503.78;;;10.41;56.53
69624;BME280;56843;52.020;5.670;2023-03-15T07:42:39;101505.22;;;10.47;56.27
69624;BME280;56843;52.020;5.670;2023-03-15T07:44:11;101502.75;;;10.51;56.27
69624;BME280;56843;52.020;5.670;2023-03-15T07:45:42;101516.47;;;10.58;56.39
69624;BME280;56843;52.020;5.670;2023-03-15T07:47:12;101513.97;;;10.61;56.18
69624;BME280;56843;52.020;5.670;2023-03-15T07:48:42;101520.28;;;10.65;56.00
69624;BME280;56843;52.020;5.670;2023-03-15T07:50:13;101520.16;;;10.70;55.90
69624;BME280;56843;52.020;5.670;2023-03-15T07:51:44;101528.34;;;10.74;55.68
69624;BME280;56843;52.020;5.670;2023-03-15T07:53:15;101525.84;;;10.77;55.81
69624;BME280;56843;52.020;5.670;2023-03-15T07:54:45;101526.50;;;10.83;55.48
69624;BME280;56843;52.020;5.670;2023-03-15T07:56:16;101532.31;;;10.85;55.80
69624;BME280;56843;52.020;5.670;2023-03-15T07:57:46;101537.56;;;10.90;55.57
69624;BME280;56843;52.020;5.670;2023-03-15T07:59:17;101537.72;;;10.93;55.36
69624;BME280;56843;52.020;5.670;2023-03-15T08:00:47;101535.56;;;10.95;55.02
69624;BME280;56843;52.020;5.670;2023-03-15T08:02:18;101540.59;;;10.97;55.56
69624;BME280;56843;52.020;5.670;2023-03-15T08:03:48;101540.16;;;11.03;55.45
69624;BME280;56843;52.020;5.670;2023-03-15T08:05:19;101546.75;;;11.06;55.17
69624;BME280;56843;52.020;5.670;2023-03-15T08:06:49;101548.50;;;11.11;54.96
69624;BME280;56843;52.020;5.670;2023-03-15T08:08:20;101554.34;;;11.13;55.02
69624;BME280;56843;52.020;5.670;2023-03-15T08:09:50;101555.63;;;11.15;54.77
69624;BME280;56843;52.020;5.670;2023-03-15T08:11:21;101552.31;;;11.18;54.98
69624;BME280;56843;52.020;5.670;2023-03-15T08:12:52;101554.69;;;11.20;54.75
69624;BME280;56843;52.020;5.670;2023-03-15T08:14:22;101558.31;;;11.24;54.54
69624;BME280;56843;52.020;5.670;2023-03-15T08:15:53;101553.47;;;11.26;54.85
69624;BME280;56843;52.020;5.670;2023-03-15T08:17:24;101571.25;;;11.30;54.71
69624;BME280;56843;52.020;5.670;2023-03-15T08:18:54;101564.50;;;11.33;54.49
69624;BME280;56843;52.020;5.670;2023-03-15T08:20:25;101567.66;;;11.35;54.50
69624;BME280;56843;52.020;5.670;2023-03-15T08:21:56;101566.25;;;11.37;54.57
69624;BME280;56843;52.020;5.670;2023-03-15T08:23:26;101570.19;;;11.40;54.28
69624;BME280;56843;52.020;5.670;2023-03-15T08:24:57;101561.84;;;11.41;54.39
69624;BME280;56843;52.020;5.670;2023-03-15T08:26:27;101567.53;;;11.40;54.38
69624;BME280;56843;52.020;5.670;2023-03-15T08:27:58;101569.25;;;11.44;54.10
69624;BME280;56843;52.020;5.670;2023-03-15T08:29:28;101570.50;;;11.47;54.21
69624;BME280;56843;52.020;5.670;2023-03-15T08:30:59;101578.25;;;11.48;53.98
69624;BME280;56843;52.020;5.670;2023-03-15T08:32:29;101577.63;;;11.51;54.11
69624;BME280;56843;52.020;5.670;2023-03-15T08:34:00;101578.41;;;11.52;54.11